sensor_id;sensor_type;location;lat;lon;timestamp;P1;durP1;ratioP1;P2;durP2;ratioP2
25091;SDS011;13082;52.374;4.946;2023-05-10T00:01:37;27.93;;;17.40;;
25091;SDS011;13082;52.374;4.946;2023-05-10T00:04:03;28.03;;;17.53;;
25091;SDS011;13082;52.374;4.946;2023-05-10T00:06:28;28.67;;;18.40;;
25091;SDS011;13082;52.374;4.946;2023-05-10T00:08:55;25.50;;;16.43;;
25091;SDS011;13082;52.374;4.946;2023-05-10T00:11:20;23.47;;;17.40;;
25091;SDS011;13082;52.374;4.946;2023-05-10T00:13:46;26.63;;;17.73;;
25091;SDS011;13082;52.374;4.946;2023-05-10T00:16:12;28.37;;;17.80;;
25091;SDS011;13082;52.374;4.946;2023-05-10T00:18:38;27.50;;;17.93;;
25091;SDS011;13082;52.374;4.946;2023-05-10T00:21:04;28.70;;;17.33;;
25091;SDS011;13082;52.374;4.946;2023-05-10T00:23:30;24.30;;;16.77;;
25091;SDS011;13082;52.374;4.946;2023-05-10T00:25:56;27.03;;;17.23;;
25091;SDS011;13082;52.374;4.946;2023-05-10T00:28:22;28.67;;;17.37;;
25091;SDS011;13082;52.374;4.946;2023-05-10T00:30:47;28.60;;;18.10;;
25091;SDS011;13082;52.374;4.946;2023-05-10T00:33:13;25.20;;;17.57;;
25091;SDS011;13082;52.374;4.946;2023-05-10T00:35:39;26.07;;;17.83;;
25091;SDS011;13082;52.374;4.946;2023-05-10T00:38:05;28.60;;;18.20;;
25091;SDS011;13082;52.374;4.946;2023-05-10T00:40:31;26.80;;;18.37;;
25091;SDS011;13082;52.374;4.946;2023-05-10T00:42:57;27.73;;;18.90;;
25091;SDS011;13082;52.374;4.946;2023-05-10T00:45:23;28.33;;;17.77;;
25091;SDS011;13082;52.374;4.946;2023-05-10T00:47:49;27.83;;;17.97;;
25091;SDS011;13082;52.374;4.946;2023-05-10T00:50:17;29.17;;;19.43;;
25091;SDS011;13082;52.374;4.946;2023-05-10T00:52:43;26.67;;;18.13;;
25091;SDS011;13082;52.374;4.946;2023-05-10T00:55:09;28.03;;;19.10;;
25091;SDS011;13082;52.374;4.946;2023-05-10T00:57:37;27.80;;;18.87;;
25091;SDS011;13082;52.374;4.946;2023-05-10T01:00:03;28.13;;;18.77;;
25091;SDS011;13082;52.374;4.946;2023-05-10T01:02:29;26.13;;;17.60;;
25091;SDS011;13082;52.374;4.946;2023-05-10T01:04:55;27.23;;;18.13;;
25091;SDS011;13082;52.374;4.946;2023-05-10T01:07:21;30.00;;;18.43;;
25091;SDS011;13082;52.374;4.946;2023-05-10T01:09:46;29.03;;;17.67;;
25091;SDS011;13082;52.374;4.946;2023-05-10T01:12:12;28.67;;;19.03;;
25091;SDS011;13082;52.374;4.946;2023-05-10T01:14:38;28.17;;;17.40;;
25091;SDS011;13082;52.374;4.946;2023-05-10T01:17:04;27.53;;;17.30;;
25091;SDS011;13082;52.374;4.946;2023-05-10T01:19:31;30.73;;;18.20;;
25091;SDS011;13082;52.374;4.946;2023-05-10T01:30:16;26.13;;;17.87;;
25091;SDS011;13082;52.374;4.946;2023-05-10T01:38:50;23.00;;;16.43;;
25091;SDS011;13082;52.374;4.946;2023-05-10T01:41:36;24.77;;;17.83;;
25091;SDS011;13082;52.374;4.946;2023-05-10T01:44:15;26.23;;;17.40;;
25091;SDS011;13082;52.374;4.946;2023-05-10T01:46:49;25.73;;;17.87;;
25091;SDS011;13082;52.374;4.946;2023-05-10T01:49:25;27.93;;;18.33;;
25091;SDS011;13082;52.374;4.946;2023-05-10T01:51:54;25.47;;;17.20;;
25091;SDS011;13082;52.374;4.946;2023-05-10T01:54:25;27.40;;;17.70;;
25091;SDS011;13082;52.374;4.946;2023-05-10T01:56:59;30.70;;;18.33;;
25091;SDS011;13082;52.374;4.946;2023-05-10T01:59:29;28.43;;;18.53;;
25091;SDS011;13082;52.374;4.946;2023-05-10T02:02:01;30.57;;;19.80;;
25091;SDS011;13082;52.374;4.946;2023-05-10T02:04:29;26.40;;;18.37;;
25091;SDS011;13082;52.374;4.946;2023-05-10T02:06:56;30.13;;;18.70;;
25091;SDS011;13082;52.374;4.946;2023-05-10T02:09:22;30.73;;;19.87;;
25091;SDS011;13082;52.374;4.946;2023-05-10T02:11:50;26.63;;;18.37;;
25091;SDS011;13082;52.374;4.946;2023-05-10T02:14:16;30.30;;;19.13;;
25091;SDS011;13082;52.374;4.946;2023-05-10T02:16:43;30.10;;;19.17;;
25091;SDS011;13082;52.374;4.946;2023-05-10T02:19:11;29.87;;;18.53;;
25091;SDS011;13082;52.374;4.946;2023-05-10T02:21:39;30.43;;;19.23;;
25091;SDS011;13082;52.374;4.946;2023-05-10T02:24:06;34.87;;;22.13;;
25091;SDS011;13082;52.374;4.946;2023-05-10T02:26:33;31.40;;;21.10;;
25091;SDS011;13082;52.374;4.946;2023-05-10T02:29:01;34.80;;;21.37;;
25091;SDS011;13082;52.374;4.946;2023-05-10T02:31:28;37.73;;;21.57;;
25091;SDS011;13082;52.374;4.946;2023-05-10T02:33:58;35.13;;;22.17;;
25091;SDS011;13082;52.374;4.946;2023-05-10T02:36:26;38.07;;;20.37;;
25091;SDS011;13082;52.374;4.946;2023-05-10T02:38:53;46.70;;;21.90;;
25091;SDS011;13082;52.374;4.946;2023-05-10T02:41:20;43.43;;;22.27;;
25091;SDS011;13082;52.374;4.946;2023-05-10T02:43:49;44.53;;;21.60;;
25091;SDS011;13082;52.374;4.946;2023-05-10T02:46:18;39.00;;;20.37;;
25091;SDS011;13082;52.374;4.946;2023-05-10T02:48:44;37.20;;;20.03;;
25091;SDS011;13082;52.374;4.946;2023-05-10T02:51:10;37.70;;;20.97;;
25091;SDS011;13082;52.374;4.946;2023-05-10T02:53:40;40.27;;;19.57;;
25091;SDS011;13082;52.374;4.946;2023-05-10T02:56:11;37.47;;;19.23;;
25091;SDS011;13082;52.374;4.946;2023-05-10T02:58:47;32.73;;;18.47;;
25091;SDS011;13082;52.374;4.946;2023-05-10T03:01:13;33.07;;;18.27;;
25091;SDS011;13082;52.374;4.946;2023-05-10T03:03:38;35.83;;;17.87;;
25091;SDS011;13082;52.374;4.946;2023-05-10T03:06:04;31.80;;;19.00;;
25091;SDS011;13082;52.374;4.946;2023-05-10T03:08:30;28.37;;;16.57;;
25091;SDS011;13082;52.374;4.946;2023-05-10T03:11:02;32.93;;;17.80;;
25091;SDS011;13082;52.374;4.946;2023-05-10T03:16:27;33.70;;;18.30;;
25091;SDS011;13082;52.374;4.946;2023-05-10T03:19:01;32.30;;;19.97;;
25091;SDS011;13082;52.374;4.946;2023-05-10T03:21:41;31.73;;;19.40;;
25091;SDS011;13082;52.374;4.946;2023-05-10T03:24:11;36.80;;;19.37;;
25091;SDS011;13082;52.374;4.946;2023-05-10T03:26:40;33.10;;;19.80;;
25091;SDS011;13082;52.374;4.946;2023-05-10T03:29:08;32.10;;;19.27;;
25091;SDS011;13082;52.374;4.946;2023-05-10T03:31:35;39.43;;;20.63;;
25091;SDS011;13082;52.374;4.946;2023-05-10T03:34:00;34.10;;;20.40;;
25091;SDS011;13082;52.374;4.946;2023-05-10T03:36:26;27.97;;;15.73;;
25091;SDS011;13082;52.374;4.946;2023-05-10T03:38:52;25.57;;;15.43;;
25091;SDS011;13082;52.374;4.946;2023-05-10T03:41:17;27.40;;;15.50;;
25091;SDS011;13082;52.374;4.946;2023-05-10T03:43:43;28.97;;;14.53;;
25091;SDS011;13082;52.374;4.946;2023-05-10T03:46:09;29.20;;;14.27;;
25091;SDS011;13082;52.374;4.946;2023-05-10T03:48:34;25.67;;;13.77;;
25091;SDS011;13082;52.374;4.946;2023-05-10T03:51:00;27.80;;;15.10;;
25091;SDS011;13082;52.374;4.946;2023-05-10T03:53:25;28.73;;;14.97;;
25091;SDS011;13082;52.374;4.946;2023-05-10T03:55:51;31.10;;;16.27;;
25091;SDS011;13082;52.374;4.946;2023-05-10T03:58:17;32.27;;;15.13;;
25091;SDS011;13082;52.374;4.946;2023-05-10T04:00:43;36.03;;;15.80;;
25091;SDS011;13082;52.374;4.946;2023-05-10T04:03:10;29.33;;;16.40;;
25091;SDS011;13082;52.374;4.946;2023-05-10T04:05:37;30.10;;;16.10;;
25091;SDS011;13082;52.374;4.946;2023-05-10T04:08:03;28.97;;;15.67;;
25091;SDS011;13082;52.374;4.946;2023-05-10T04:10:29;31.63;;;17.23;;
25091;SDS011;13082;52.374;4.946;2023-05-10T04:12:54;28.77;;;16.93;;
25091;SDS011;13082;52.374;4.946;2023-05-10T04:15:20;37.83;;;18.80;;
25091;SDS011;13082;52.374;4.946;2023-05-10T04:17:46;35.80;;;18.57;;
25091;SDS011;13082;52.374;4.946;2023-05-10T04:20:12;33.67;;;18.00;;
25091;SDS011;13082;52.374;4.946;2023-05-10T04:22:37;33.53;;;17.63;;
25091;SDS011;13082;52.374;4.946;2023-05-10T04:25:03;28.00;;;16.67;;
25091;SDS011;13082;52.374;4.946;2023-05-10T04:27:29;34.90;;;18.47;;
25091;SDS011;13082;52.374;4.946;2023-05-10T04:29:56;34.10;;;16.63;;
25091;SDS011;13082;52.374;4.946;2023-05-10T04:32:22;32.37;;;16.43;;
25091;SDS011;13082;52.374;4.946;2023-05-10T04:34:47;28.13;;;17.67;;
25091;SDS011;13082;52.374;4.946;2023-05-10T04:37:13;35.90;;;16.87;;
25091;SDS011;13082;52.374;4.946;2023-05-10T04:39:39;32.17;;;16.57;;
25091;SDS011;13082;52.374;4.946;2023-05-10T04:42:04;31.07;;;17.73;;
25091;SDS011;13082;52.374;4.946;2023-05-10T04:44:30;34.40;;;16.17;;
25091;SDS011;13082;52.374;4.946;2023-05-10T04:46:56;35.57;;;18.03;;
25091;SDS011;13082;52.374;4.946;2023-05-10T04:49:22;33.67;;;16.90;;
25091;SDS011;13082;52.374;4.946;2023-05-10T04:51:48;33.33;;;17.17;;
25091;SDS011;13082;52.374;4.946;2023-05-10T04:54:13;29.87;;;16.53;;
25091;SDS011;13082;52.374;4.946;2023-05-10T04:56:39;29.73;;;15.63;;
25091;SDS011;13082;52.374;4.946;2023-05-10T04:59:05;30.67;;;16.60;;
25091;SDS011;13082;52.374;4.946;2023-05-10T05:01:31;27.20;;;16.60;;
25091;SDS011;13082;52.374;4.946;2023-05-10T05:03:57;34.17;;;16.27;;
25091;SDS011;13082;52.374;4.946;2023-05-10T05:06:23;29.27;;;14.73;;
25091;SDS011;13082;52.374;4.946;2023-05-10T05:08:50;31.03;;;14.77;;
25091;SDS011;13082;52.374;4.946;2023-05-10T05:11:16;34.30;;;15.77;;
25091;SDS011;13082;52.374;4.946;2023-05-10T05:13:42;28.67;;;13.67;;
25091;SDS011;13082;52.374;4.946;2023-05-10T05:16:08;26.83;;;13.33;;
25091;SDS011;13082;52.374;4.946;2023-05-10T05:18:33;32.20;;;15.80;;
25091;SDS011;13082;52.374;4.946;2023-05-10T05:20:59;24.70;;;12.80;;
25091;SDS011;13082;52.374;4.946;2023-05-10T05:23:25;23.33;;;13.13;;
25091;SDS011;13082;52.374;4.946;2023-05-10T05:25:51;27.00;;;13.50;;
25091;SDS011;13082;52.374;4.946;2023-05-10T05:28:18;25.50;;;12.70;;
25091;SDS011;13082;52.374;4.946;2023-05-10T05:30:46;23.77;;;12.13;;
25091;SDS011;13082;52.374;4.946;2023-05-10T05:33:15;23.77;;;12.80;;
25091;SDS011;13082;52.374;4.946;2023-05-10T05:35:41;23.83;;;11.77;;
25091;SDS011;13082;52.374;4.946;2023-05-10T05:38:09;21.03;;;12.33;;
25091;SDS011;13082;52.374;4.946;2023-05-10T05:40:35;27.13;;;11.20;;
25091;SDS011;13082;52.374;4.946;2023-05-10T05:43:00;21.50;;;11.50;;
25091;SDS011;13082;52.374;4.946;2023-05-10T05:45:26;20.97;;;11.17;;
25091;SDS011;13082;52.374;4.946;2023-05-10T05:47:52;15.77;;;10.90;;
25091;SDS011;13082;52.374;4.946;2023-05-10T05:50:17;18.80;;;9.87;;
25091;SDS011;13082;52.374;4.946;2023-05-10T05:52:43;18.43;;;10.30;;
25091;SDS011;13082;52.374;4.946;2023-05-10T05:55:08;21.43;;;11.50;;
25091;SDS011;13082;52.374;4.946;2023-05-10T05:57:34;20.67;;;10.70;;
25091;SDS011;13082;52.374;4.946;2023-05-10T06:00:00;15.43;;;8.97;;
25091;SDS011;13082;52.374;4.946;2023-05-10T06:02:25;17.73;;;9.53;;
25091;SDS011;13082;52.374;4.946;2023-05-10T06:04:51;16.10;;;8.63;;
25091;SDS011;13082;52.374;4.946;2023-05-10T06:07:17;18.27;;;10.03;;
25091;SDS011;13082;52.374;4.946;2023-05-10T06:09:42;14.87;;;9.03;;
25091;SDS011;13082;52.374;4.946;2023-05-10T06:12:08;12.90;;;8.47;;
25091;SDS011;13082;52.374;4.946;2023-05-10T06:14:33;18.60;;;9.23;;
25091;SDS011;13082;52.374;4.946;2023-05-10T06:16:59;18.67;;;9.57;;
25091;SDS011;13082;52.374;4.946;2023-05-10T06:19:25;16.80;;;9.83;;
25091;SDS011;13082;52.374;4.946;2023-05-10T06:21:51;14.63;;;9.27;;
25091;SDS011;13082;52.374;4.946;2023-05-10T06:24:17;14.93;;;10.20;;
25091;SDS011;13082;52.374;4.946;2023-05-10T06:26:42;14.27;;;9.50;;
25091;SDS011;13082;52.374;4.946;2023-05-10T06:29:08;16.60;;;9.63;;
25091;SDS011;13082;52.374;4.946;2023-05-10T06:31:33;16.83;;;10.00;;
25091;SDS011;13082;52.374;4.946;2023-05-10T06:33:59;16.63;;;10.70;;
25091;SDS011;13082;52.374;4.946;2023-05-10T06:36:25;15.90;;;10.07;;
25091;SDS011;13082;52.374;4.946;2023-05-10T06:38:51;17.10;;;10.27;;
25091;SDS011;13082;52.374;4.946;2023-05-10T06:41:17;15.37;;;10.60;;
25091;SDS011;13082;52.374;4.946;2023-05-10T06:43:42;17.93;;;11.20;;
25091;SDS011;13082;52.374;4.946;2023-05-10T06:46:08;19.30;;;11.30;;
25091;SDS011;13082;52.374;4.946;2023-05-10T06:48:34;18.67;;;11.47;;
25091;SDS011;13082;52.374;4.946;2023-05-10T06:50:59;21.07;;;10.83;;
25091;SDS011;13082;52.374;4.946;2023-05-10T06:53:25;17.37;;;10.73;;
25091;SDS011;13082;52.374;4.946;2023-05-10T06:55:51;15.70;;;10.77;;
25091;SDS011;13082;52.374;4.946;2023-05-10T06:58:17;18.70;;;9.73;;
25091;SDS011;13082;52.374;4.946;2023-05-10T07:00:42;18.60;;;9.93;;
25091;SDS011;13082;52.374;4.946;2023-05-10T07:03:09;15.63;;;9.53;;
25091;SDS011;13082;52.374;4.946;2023-05-10T07:05:35;12.83;;;7.83;;
25091;SDS011;13082;52.374;4.946;2023-05-10T07:08:01;16.10;;;9.57;;
25091;SDS011;13082;52.374;4.946;2023-05-10T07:10:27;13.93;;;8.00;;
25091;SDS011;13082;52.374;4.946;2023-05-10T07:12:52;13.67;;;8.90;;
25091;SDS011;13082;52.374;4.946;2023-05-10T07:15:18;14.23;;;9.37;;
25091;SDS011;13082;52.374;4.946;2023-05-10T07:17:44;17.40;;;9.00;;
25091;SDS011;13082;52.374;4.946;2023-05-10T07:20:10;17.10;;;8.80;;
25091;SDS011;13082;52.374;4.946;2023-05-10T07:22:36;16.53;;;8.90;;
25091;SDS011;13082;52.374;4.946;2023-05-10T07:25:01;16.00;;;9.80;;
25091;SDS011;13082;52.374;4.946;2023-05-10T07:27:27;13.60;;;9.07;;
25091;SDS011;13082;52.374;4.946;2023-05-10T07:29:53;13.30;;;8.63;;
25091;SDS011;13082;52.374;4.946;2023-05-10T07:32:19;18.93;;;10.13;;
25091;SDS011;13082;52.374;4.946;2023-05-10T07:34:45;17.73;;;10.77;;
25091;SDS011;13082;52.374;4.946;2023-05-10T07:37:11;15.43;;;9.80;;
25091;SDS011;13082;52.374;4.946;2023-05-10T07:39:37;19.20;;;11.67;;
25091;SDS011;13082;52.374;4.946;2023-05-10T07:42:03;17.03;;;11.37;;
25091;SDS011;13082;52.374;4.946;2023-05-10T07:44:28;19.10;;;11.10;;
25091;SDS011;13082;52.374;4.946;2023-05-10T07:46:54;17.57;;;10.97;;
25091;SDS011;13082;52.374;4.946;2023-05-10T07:49:20;22.87;;;13.10;;
25091;SDS011;13082;52.374;4.946;2023-05-10T07:51:46;21.43;;;12.90;;
25091;SDS011;13082;52.374;4.946;2023-05-10T07:54:12;18.33;;;13.13;;
25091;SDS011;13082;52.374;4.946;2023-05-10T07:56:38;19.70;;;13.13;;
25091;SDS011;13082;52.374;4.946;2023-05-10T07:59:05;22.53;;;12.27;;
25091;SDS011;13082;52.374;4.946;2023-05-10T08:01:32;18.13;;;11.27;;
25091;SDS011;13082;52.374;4.946;2023-05-10T08:03:59;16.97;;;10.90;;
25091;SDS011;13082;52.374;4.946;2023-05-10T08:06:25;16.00;;;10.33;;
25091;SDS011;13082;52.374;4.946;2023-05-10T08:08:53;14.37;;;10.10;;
25091;SDS011;13082;52.374;4.946;2023-05-10T08:11:22;18.50;;;10.77;;
25091;SDS011;13082;52.374;4.946;2023-05-10T08:13:48;15.73;;;11.33;;
25091;SDS011;13082;52.374;4.946;2023-05-10T08:16:15;16.27;;;11.07;;
25091;SDS011;13082;52.374;4.946;2023-05-10T08:18:42;15.00;;;9.70;;
25091;SDS011;13082;52.374;4.946;2023-05-10T08:21:10;15.17;;;9.40;;
25091;SDS011;13082;52.374;4.946;2023-05-10T08:23:36;10.77;;;8.67;;
25091;SDS011;13082;52.374;4.946;2023-05-10T08:26:02;9.07;;;7.27;;
25091;SDS011;13082;52.374;4.946;2023-05-10T08:28:28;10.40;;;7.70;;
25091;SDS011;13082;52.374;4.946;2023-05-10T08:30:54;10.17;;;6.70;;
25091;SDS011;13082;52.374;4.946;2023-05-10T08:33:19;9.20;;;7.07;;
25091;SDS011;13082;52.374;4.946;2023-05-10T08:35:48;10.07;;;6.80;;
25091;SDS011;13082;52.374;4.946;2023-05-10T08:38:14;10.63;;;6.60;;
25091;SDS011;13082;52.374;4.946;2023-05-10T08:40:41;9.93;;;5.93;;
25091;SDS011;13082;52.374;4.946;2023-05-10T08:43:10;7.80;;;6.20;;
25091;SDS011;13082;52.374;4.946;2023-05-10T08:45:44;8.33;;;5.80;;
25091;SDS011;13082;52.374;4.946;2023-05-10T08:48:13;6.73;;;5.43;;
25091;SDS011;13082;52.374;4.946;2023-05-10T08:50:40;9.40;;;5.30;;
25091;SDS011;13082;52.374;4.946;2023-05-10T08:53:10;7.23;;;5.37;;
25091;SDS011;13082;52.374;4.946;2023-05-10T08:55:37;5.10;;;4.20;;
25091;SDS011;13082;52.374;4.946;2023-05-10T08:58:05;8.20;;;5.13;;
25091;SDS011;13082;52.374;4.946;2023-05-10T09:00:31;7.77;;;4.80;;
25091;SDS011;13082;52.374;4.946;2023-05-10T09:02:58;5.63;;;4.77;;
25091;SDS011;13082;52.374;4.946;2023-05-10T09:05:24;6.57;;;4.67;;
25091;SDS011;13082;52.374;4.946;2023-05-10T09:07:51;7.37;;;4.57;;
25091;SDS011;13082;52.374;4.946;2023-05-10T09:10:16;6.33;;;5.07;;
25091;SDS011;13082;52.374;4.946;2023-05-10T09:12:43;5.57;;;4.60;;
25091;SDS011;13082;52.374;4.946;2023-05-10T09:15:10;9.40;;;5.90;;
25091;SDS011;13082;52.374;4.946;2023-05-10T09:17:38;6.40;;;5.40;;
25091;SDS011;13082;52.374;4.946;2023-05-10T09:20:05;5.47;;;4.80;;
25091;SDS011;13082;52.374;4.946;2023-05-10T09:22:32;7.07;;;5.10;;
25091;SDS011;13082;52.374;4.946;2023-05-10T09:25:07;5.57;;;4.80;;
25091;SDS011;13082;52.374;4.946;2023-05-10T09:27:36;7.17;;;4.60;;
25091;SDS011;13082;52.374;4.946;2023-05-10T09:30:03;5.80;;;4.83;;
25091;SDS011;13082;52.374;4.946;2023-05-10T09:32:40;5.57;;;4.17;;
25091;SDS011;13082;52.374;4.946;2023-05-10T09:35:13;8.33;;;4.70;;
25091;SDS011;13082;52.374;4.946;2023-05-10T09:37:41;5.07;;;3.97;;
25091;SDS011;13082;52.374;4.946;2023-05-10T09:40:11;5.93;;;4.17;;
25091;SDS011;13082;52.374;4.946;2023-05-10T09:42:39;8.53;;;4.50;;
25091;SDS011;13082;52.374;4.946;2023-05-10T09:45:07;8.90;;;4.00;;
25091;SDS011;13082;52.374;4.946;2023-05-10T09:47:33;5.47;;;3.33;;
25091;SDS011;13082;52.374;4.946;2023-05-10T09:50:00;6.90;;;3.90;;
25091;SDS011;13082;52.374;4.946;2023-05-10T09:52:29;6.47;;;4.33;;
25091;SDS011;13082;52.374;4.946;2023-05-10T09:54:55;6.27;;;3.60;;
25091;SDS011;13082;52.374;4.946;2023-05-10T09:57:22;4.77;;;3.80;;
25091;SDS011;13082;52.374;4.946;2023-05-10T09:59:48;4.00;;;3.53;;
25091;SDS011;13082;52.374;4.946;2023-05-10T10:02:15;5.30;;;3.50;;
25091;SDS011;13082;52.374;4.946;2023-05-10T10:04:42;4.40;;;3.40;;
25091;SDS011;13082;52.374;4.946;2023-05-10T10:07:08;4.23;;;3.50;;
25091;SDS011;13082;52.374;4.946;2023-05-10T10:09:34;7.23;;;3.87;;
25091;SDS011;13082;52.374;4.946;2023-05-10T10:12:00;5.40;;;3.60;;
25091;SDS011;13082;52.374;4.946;2023-05-10T10:14:27;4.53;;;3.53;;
25091;SDS011;13082;52.374;4.946;2023-05-10T10:16:54;5.20;;;4.03;;
25091;SDS011;13082;52.374;4.946;2023-05-10T10:19:19;5.73;;;3.50;;
25091;SDS011;13082;52.374;4.946;2023-05-10T10:21:46;6.77;;;3.50;;
25091;SDS011;13082;52.374;4.946;2023-05-10T10:24:12;5.57;;;3.93;;
25091;SDS011;13082;52.374;4.946;2023-05-10T10:26:38;6.57;;;3.30;;
25091;SDS011;13082;52.374;4.946;2023-05-10T10:32:17;5.83;;;3.70;;
25091;SDS011;13082;52.374;4.946;2023-05-10T10:35:14;8.40;;;3.47;;
25091;SDS011;13082;52.374;4.946;2023-05-10T10:37:42;3.70;;;3.27;;
25091;SDS011;13082;52.374;4.946;2023-05-10T10:40:22;3.83;;;3.20;;
25091;SDS011;13082;52.374;4.946;2023-05-10T10:42:48;5.47;;;3.40;;
25091;SDS011;13082;52.374;4.946;2023-05-10T10:45:14;5.30;;;3.13;;
25091;SDS011;13082;52.374;4.946;2023-05-10T10:47:41;5.87;;;3.70;;
25091;SDS011;13082;52.374;4.946;2023-05-10T10:50:08;4.07;;;3.10;;
25091;SDS011;13082;52.374;4.946;2023-05-10T10:52:37;7.67;;;3.13;;
25091;SDS011;13082;52.374;4.946;2023-05-10T10:55:11;4.67;;;2.40;;
25091;SDS011;13082;52.374;4.946;2023-05-10T11:03:03;6.73;;;3.43;;
25091;SDS011;13082;52.374;4.946;2023-05-10T11:05:44;5.53;;;3.00;;
25091;SDS011;13082;52.374;4.946;2023-05-10T11:08:15;5.03;;;3.67;;
25091;SDS011;13082;52.374;4.946;2023-05-10T11:13:44;4.30;;;3.70;;
25091;SDS011;13082;52.374;4.946;2023-05-10T11:18:41;4.30;;;3.40;;
25091;SDS011;13082;52.374;4.946;2023-05-10T11:21:16;6.37;;;3.03;;
25091;SDS011;13082;52.374;4.946;2023-05-10T11:23:52;5.57;;;3.17;;
25091;SDS011;13082;52.374;4.946;2023-05-10T11:26:21;3.73;;;3.17;;
25091;SDS011;13082;52.374;4.946;2023-05-10T11:28:50;8.30;;;4.40;;
25091;SDS011;13082;52.374;4.946;2023-05-10T11:31:20;4.60;;;3.60;;
25091;SDS011;13082;52.374;4.946;2023-05-10T11:33:51;5.23;;;3.60;;
25091;SDS011;13082;52.374;4.946;2023-05-10T11:36:19;4.57;;;3.57;;
25091;SDS011;13082;52.374;4.946;2023-05-10T11:38:45;5.73;;;3.57;;
25091;SDS011;13082;52.374;4.946;2023-05-10T11:41:12;7.00;;;4.00;;
25091;SDS011;13082;52.374;4.946;2023-05-10T11:43:38;4.67;;;3.10;;
25091;SDS011;13082;52.374;4.946;2023-05-10T11:46:07;7.27;;;3.70;;
25091;SDS011;13082;52.374;4.946;2023-05-10T11:48:36;6.50;;;4.10;;
25091;SDS011;13082;52.374;4.946;2023-05-10T11:51:03;7.77;;;3.97;;
25091;SDS011;13082;52.374;4.946;2023-05-10T11:53:31;6.27;;;4.73;;
25091;SDS011;13082;52.374;4.946;2023-05-10T11:56:07;5.83;;;4.53;;
25091;SDS011;13082;52.374;4.946;2023-05-10T11:58:34;7.67;;;5.37;;
25091;SDS011;13082;52.374;4.946;2023-05-10T12:01:01;8.97;;;5.60;;
25091;SDS011;13082;52.374;4.946;2023-05-10T12:03:29;8.33;;;5.80;;
25091;SDS011;13082;52.374;4.946;2023-05-10T12:05:56;7.90;;;5.40;;
25091;SDS011;13082;52.374;4.946;2023-05-10T12:08:22;10.87;;;5.67;;
25091;SDS011;13082;52.374;4.946;2023-05-10T12:11:04;15.60;;;6.17;;
25091;SDS011;13082;52.374;4.946;2023-05-10T12:13:31;12.53;;;6.63;;
25091;SDS011;13082;52.374;4.946;2023-05-10T12:15:57;9.00;;;5.90;;
25091;SDS011;13082;52.374;4.946;2023-05-10T12:18:23;10.07;;;6.07;;
25091;SDS011;13082;52.374;4.946;2023-05-10T12:20:51;10.97;;;6.13;;
25091;SDS011;13082;52.374;4.946;2023-05-10T12:23:17;9.13;;;5.80;;
25091;SDS011;13082;52.374;4.946;2023-05-10T12:25:45;6.77;;;4.60;;
25091;SDS011;13082;52.374;4.946;2023-05-10T12:28:11;10.40;;;5.17;;
25091;SDS011;13082;52.374;4.946;2023-05-10T12:30:38;8.63;;;4.63;;
25091;SDS011;13082;52.374;4.946;2023-05-10T12:33:08;7.90;;;4.77;;
25091;SDS011;13082;52.374;4.946;2023-05-10T12:35:48;5.73;;;4.27;;
25091;SDS011;13082;52.374;4.946;2023-05-10T12:38:24;6.00;;;4.07;;
25091;SDS011;13082;52.374;4.946;2023-05-10T12:41:11;7.53;;;4.37;;
25091;SDS011;13082;52.374;4.946;2023-05-10T12:43:38;5.33;;;3.70;;
25091;SDS011;13082;52.374;4.946;2023-05-10T12:46:11;4.57;;;3.20;;
25091;SDS011;13082;52.374;4.946;2023-05-10T12:48:39;5.40;;;3.90;;
25091;SDS011;13082;52.374;4.946;2023-05-10T12:51:06;4.07;;;2.93;;
25091;SDS011;13082;52.374;4.946;2023-05-10T12:53:38;5.73;;;3.87;;
25091;SDS011;13082;52.374;4.946;2023-05-10T12:56:04;5.53;;;4.37;;
25091;SDS011;13082;52.374;4.946;2023-05-10T12:58:30;6.00;;;3.67;;
25091;SDS011;13082;52.374;4.946;2023-05-10T13:00:57;4.67;;;3.03;;
25091;SDS011;13082;52.374;4.946;2023-05-10T13:03:23;3.77;;;3.03;;
25091;SDS011;13082;52.374;4.946;2023-05-10T13:05:48;4.60;;;3.40;;
25091;SDS011;13082;52.374;4.946;2023-05-10T13:08:14;4.10;;;3.27;;
25091;SDS011;13082;52.374;4.946;2023-05-10T13:10:40;3.07;;;2.63;;
25091;SDS011;13082;52.374;4.946;2023-05-10T13:13:05;5.13;;;3.00;;
25091;SDS011;13082;52.374;4.946;2023-05-10T13:15:32;4.60;;;2.80;;
25091;SDS011;13082;52.374;4.946;2023-05-10T13:17:58;4.30;;;2.70;;
25091;SDS011;13082;52.374;4.946;2023-05-10T13:20:24;4.43;;;2.83;;
25091;SDS011;13082;52.374;4.946;2023-05-10T13:22:53;5.40;;;2.07;;
25091;SDS011;13082;52.374;4.946;2023-05-10T13:25:18;5.33;;;3.17;;
25091;SDS011;13082;52.374;4.946;2023-05-10T13:27:44;4.47;;;2.60;;
25091;SDS011;13082;52.374;4.946;2023-05-10T13:30:10;2.87;;;2.53;;
25091;SDS011;13082;52.374;4.946;2023-05-10T13:32:36;4.20;;;3.07;;
25091;SDS011;13082;52.374;4.946;2023-05-10T13:35:02;2.53;;;2.33;;
25091;SDS011;13082;52.374;4.946;2023-05-10T13:37:28;4.63;;;3.10;;
25091;SDS011;13082;52.374;4.946;2023-05-10T13:39:55;3.53;;;2.40;;
25091;SDS011;13082;52.374;4.946;2023-05-10T13:42:21;3.37;;;2.97;;
25091;SDS011;13082;52.374;4.946;2023-05-10T13:44:47;5.03;;;2.93;;
25091;SDS011;13082;52.374;4.946;2023-05-10T13:47:13;4.30;;;2.87;;
25091;SDS011;13082;52.374;4.946;2023-05-10T13:49:39;3.87;;;2.87;;
25091;SDS011;13082;52.374;4.946;2023-05-10T13:52:04;4.13;;;3.23;;
25091;SDS011;13082;52.374;4.946;2023-05-10T13:54:34;4.87;;;3.27;;
25091;SDS011;13082;52.374;4.946;2023-05-10T13:57:00;5.80;;;3.63;;
25091;SDS011;13082;52.374;4.946;2023-05-10T13:59:26;5.87;;;3.93;;
25091;SDS011;13082;52.374;4.946;2023-05-10T14:01:52;6.37;;;4.07;;
25091;SDS011;13082;52.374;4.946;2023-05-10T14:04:18;5.67;;;3.70;;
25091;SDS011;13082;52.374;4.946;2023-05-10T14:06:43;7.27;;;4.30;;
25091;SDS011;13082;52.374;4.946;2023-05-10T14:09:09;7.43;;;4.17;;
25091;SDS011;13082;52.374;4.946;2023-05-10T14:11:34;6.63;;;3.80;;
25091;SDS011;13082;52.374;4.946;2023-05-10T14:14:00;4.63;;;3.27;;
25091;SDS011;13082;52.374;4.946;2023-05-10T14:16:26;4.80;;;3.43;;
25091;SDS011;13082;52.374;4.946;2023-05-10T14:18:52;4.93;;;3.60;;
25091;SDS011;13082;52.374;4.946;2023-05-10T14:21:17;5.43;;;3.83;;
25091;SDS011;13082;52.374;4.946;2023-05-10T14:23:43;3.00;;;2.60;;
25091;SDS011;13082;52.374;4.946;2023-05-10T14:26:09;2.70;;;2.50;;
25091;SDS011;13082;52.374;4.946;2023-05-10T14:28:34;4.17;;;2.40;;
25091;SDS011;13082;52.374;4.946;2023-05-10T14:31:00;5.90;;;3.20;;
25091;SDS011;13082;52.374;4.946;2023-05-10T14:33:25;5.90;;;2.80;;
25091;SDS011;13082;52.374;4.946;2023-05-10T14:35:51;3.23;;;2.80;;
25091;SDS011;13082;52.374;4.946;2023-05-10T14:38:17;6.73;;;3.83;;
25091;SDS011;13082;52.374;4.946;2023-05-10T14:40:42;4.00;;;3.23;;
25091;SDS011;13082;52.374;4.946;2023-05-10T14:43:08;7.07;;;3.83;;
25091;SDS011;13082;52.374;4.946;2023-05-10T14:45:34;4.20;;;2.83;;
25091;SDS011;13082;52.374;4.946;2023-05-10T14:48:00;3.77;;;2.17;;
25091;SDS011;13082;52.374;4.946;2023-05-10T14:50:26;4.40;;;2.10;;
25091;SDS011;13082;52.374;4.946;2023-05-10T14:52:51;3.30;;;2.13;;
25091;SDS011;13082;52.374;4.946;2023-05-10T14:55:17;4.03;;;2.10;;
25091;SDS011;13082;52.374;4.946;2023-05-10T14:57:43;4.43;;;2.70;;
25091;SDS011;13082;52.374;4.946;2023-05-10T15:00:09;2.63;;;2.33;;
25091;SDS011;13082;52.374;4.946;2023-05-10T15:02:35;3.10;;;2.37;;
25091;SDS011;13082;52.374;4.946;2023-05-10T15:05:01;3.60;;;2.60;;